ADDS METAR Data INFO
IDs: Format: Raw Decoded Include TAF

Data at: 1932 UTC 19 Jul 2018

KVKY 191915Z AUTO 27011KT 6SM HZ SCT040 SCT048 SCT075 27/23 A2997 RMK A01
KVKY 191855Z AUTO 28012KT 9SM FEW035 BKN041 BKN048 27/23 A2997 RMK A01
KVKY 191835Z AUTO 29013KT 10SM FEW035 SCT080 27/23 A2998 RMK A01
KVKY 191815Z AUTO 28011KT 7SM FEW037 26/23 A2998 RMK A01
KVKY 191755Z AUTO 28010KT 5SM HZ CLR 26/23 A2999 RMK A01
KVKY 191735Z AUTO 30015KT 2SM HZ FEW004 FEW030 SCT048 25/23 A2997 RMK A01
KVKY 191715Z AUTO 33020G26KT 1SM BR SCT004 BKN019 OVC029 26/23 A2998 RMK A01
KVKY 191655Z AUTO 28016G27KT 10SM SCT020 BKN025 BKN036 28/25 A2999 RMK A01
KVKY 191635Z AUTO 27012KT 10SM FEW021 FEW070 28/25 A3000 RMK A01
KVKY 191615Z AUTO 28014KT 10SM CLR 28/25 A2999 RMK A01
KVKY 191555Z AUTO 27014KT 10SM FEW060 28/25 A2999 RMK A01
KVKY 191535Z AUTO 28014KT 10SM CLR 28/25 A2999 RMK A01
KVKY 191515Z AUTO 27014KT 10SM CLR 27/25 A2999 RMK A01
KVKY 191455Z AUTO 26014KT 9SM FEW023 SCT046 SCT065 27/25 A2999 RMK A01
KVKY 191435Z AUTO 27016G21KT 5SM BR FEW004 BKN023 OVC070 26/25 A2999 RMK A01
KVKY 191415Z AUTO 27023KT 1 1/4SM BR SCT004 BKN012 OVC042 27/24 A2999 RMK A01
KVKY 191355Z AUTO 26010KT 10SM SCT039 BKN045 BKN050 27/25 A2999 RMK A01
KVKY 191335Z AUTO 28011KT 10SM FEW013 SCT029 BKN039 27/25 A2999 RMK A01
KVKY 191315Z AUTO 26010KT 9SM SCT028 SCT033 BKN043 27/24 A2999 RMK A01
KVKY 191255Z AUTO 25013KT 9SM FEW016 SCT030 BKN038 26/24 A2999 RMK A01
KVKY 191235Z AUTO 27016KT 9SM BKN016 BKN024 BKN030 27/24 A2998 RMK A01
KVKY 191215Z AUTO 27011KT 9SM SCT016 BKN023 OVC044 27/24 A2998 RMK A01
KVKY 191155Z AUTO 27008KT 10SM SCT026 BKN032 BKN039 27/24 A2998 RMK A01
KVKY 191135Z AUTO 28008KT 10SM SCT025 BKN034 OVC070 27/23 A2998 RMK A01
KVKY 191115Z AUTO 31008KT 9SM FEW034 SCT044 BKN060 27/23 A2997 RMK A01
KVKY 191055Z AUTO 31011KT 10SM SCT041 BKN047 OVC060 27/23 A2997 RMK A01
KVKY 191035Z AUTO 31009KT 10SM FEW036 SCT044 BKN060 27/24 A2997 RMK A01
KVKY 191015Z AUTO 29007KT 10SM SCT050 SCT060 27/24 A2996 RMK A01
KVKY 190955Z AUTO 29009KT 10SM FEW048 OVC055 27/24 A2996 RMK A01
KVKY 190935Z AUTO 28010KT 10SM FEW018 SCT047 BKN060 27/24 A2996 RMK A01
KVKY 190915Z AUTO 28011KT 10SM SCT020 BKN027 BKN050 27/24 A2996 RMK A01
KVKY 190855Z AUTO 27011KT 10SM SCT021 BKN046 OVC065 27/24 A2996 RMK A01
KVKY 190835Z AUTO 28009KT 10SM FEW031 BKN055 OVC065 27/23 A2995 RMK A01
KVKY 190815Z AUTO 26011KT 10SM OVC050 27/23 A2995 RMK A01
KVKY 190755Z AUTO 26011KT 10SM FEW017 FEW041 OVC055 27/23 A2994 RMK A01
KVKY 190735Z AUTO 26010KT 10SM SCT017 SCT036 OVC055 27/23 A2994 RMK A01
KVKY 190715Z AUTO 27010KT 10SM BKN016 BKN030 OVC055 27/23 A2994 RMK A01
KVKY 190655Z AUTO 28011KT 10SM SCT016 BKN050 OVC055 27/24 A2995 RMK A01
KVKY 190635Z AUTO 28010KT 10SM FEW015 BKN048 OVC055 27/24 A2994 RMK A01
KVKY 190615Z AUTO 28010KT 10SM BKN044 OVC060 27/24 A2995 RMK A01
KVKY 190555Z AUTO 28010KT 10SM FEW014 BKN040 OVC060 27/24 A2996 RMK A01
KVKY 190535Z AUTO 28009KT 10SM SCT014 BKN047 OVC060 27/24 A2996 RMK A01
KVKY 190515Z AUTO 30008KT 10SM FEW014 SCT037 BKN044 27/24 A2997 RMK A01
KVKY 190455Z AUTO 31009KT 10SM FEW014 FEW034 OVC042 27/24 A2997 RMK A01
KVKY 190435Z AUTO 31010KT 10SM FEW015 BKN032 OVC040 27/24 A2997 RMK A01
KVKY 190415Z AUTO 31010KT 10SM FEW016 BKN030 OVC035 28/24 A2997 RMK A01
KVKY 190355Z AUTO 29012KT 10SM FEW030 SCT038 BKN047 28/24 A2997 RMK A01
KVKY 190335Z AUTO 30015KT 10SM SCT043 BKN050 BKN060 28/24 A2997 RMK A01
KVKY 190315Z AUTO 30017KT 10SM SCT046 BKN055 28/24 A2997 RMK A01
KVKY 190255Z AUTO 29016KT 10SM SCT046 OVC055 28/24 A2998 RMK A01
KVKY 190235Z AUTO 16.32000016KT 10SM BKN047 OVC055 28/24 A2998 RMK A01
KVKY 190215Z AUTO 29016KT 10SM FEW037 OVC048 28/23 A2997 RMK A01
KVKY 190155Z AUTO 29013KT 10SM FEW037 BKN047 OVC055 28/23 A2997 RMK A01
KVKY 190135Z AUTO 28014KT 10SM FEW039 SCT045 BKN050 28/23 A2997 RMK A01
KVKY 190115Z AUTO 28014KT 10SM FEW050 SCT060 28/23 A2997 RMK A01
KVKY 190055Z AUTO 28015KT 10SM CLR 28/23 A2998 RMK A01
KVKY 190035Z AUTO 28015KT 10SM CLR 28/24 A2997 RMK A01
KVKY 190015Z AUTO 28013KT 10SM CLR 27/24 A2997 RMK A01
KVKY 182355Z AUTO 28013KT 10SM CLR 27/24 A2996 RMK A01
KVKY 182335Z AUTO 28013KT 10SM CLR 27/24 A2996 RMK A01
KVKY 182315Z AUTO 27015KT 10SM CLR 27/24 A2996 RMK A01
KVKY 182255Z AUTO 27014KT 10SM CLR 27/24 A2997 RMK A01
KVKY 182235Z AUTO 28015KT 10SM CLR 27/24 A2996 RMK A01
KVKY 182215Z AUTO 27015KT 9SM CLR 27/24 A2997 RMK A01
KVKY 182155Z AUTO 26015KT 9SM CLR 27/24 A2998 RMK A01
KVKY 182135Z AUTO 26015KT 9SM FEW013 27/24 A2998 RMK A01
KVKY 182115Z AUTO 24011KT 9SM CLR 27/23 A2998 RMK A01
KVKY 182055Z AUTO 23010KT 9SM CLR 26/24 A2999 RMK A01
KVKY 182035Z AUTO 22010KT 10SM CLR 26/24 A3000 RMK A01
KVKY 182015Z AUTO 22009KT 9SM CLR 25/23 A3001 RMK A01
KVKY 181955Z AUTO 21008KT 6SM BR CLR 25/23 A3001 RMK A01
KVKY 181935Z AUTO VRB06KT 3SM BR SCT033 BKN042 SCT050 25/23 A3003 RMK A01
KVKY 181915Z AUTO 21006KT 3SM BR BKN032 BKN039 OVC070 24/23 A3003 RMK A01
KVKY 181855Z AUTO 00000KT 2SM BR SCT003 OVC030 25/23 A3005 RMK A01
KVKY 181835Z AUTO 21009G14KT M1/4SM FG OVC003 24/22 A3005 RMK A01
KVKY 181815Z AUTO 01006KT 1 1/4SM BR BKN004 BKN016 OVC029 24/23 A3008 RMK A01
KVKY 181755Z AUTO 13013KT 1/4SM FG OVC004 24/22 A3005 RMK A01
KVKY 181735Z AUTO VRB04G10KT 1SM BR SCT004 BKN023 OVC038 25/23 A3006 RMK A01
KVKY 181715Z AUTO 21010KT 1 1/2SM BR SCT004 SCT027 BKN040 25/23 A3005 RMK A01
KVKY 181655Z AUTO 29008KT 6SM HZ FEW030 SCT060 BKN075 26/23 A3006 RMK A01
KVKY 181635Z AUTO 29004KT 8SM FEW026 SCT037 BKN055 26/23 A3006 RMK A01
KVKY 181615Z AUTO 00000KT 8SM FEW035 FEW042 SCT050 26/24 A3006 RMK A01
KVKY 181555Z AUTO 23004KT 6SM BR CLR 25/24 A3005 RMK A01
KVKY 181535Z AUTO 00000KT 4SM BR FEW019 FEW023 SCT060 25/24 A3006 RMK A01
KVKY 181515Z AUTO 02007KT 4SM BR FEW006 BKN021 BKN030 25/24 A3006 RMK A01
KVKY 181455Z AUTO 02010G16KT 1 1/2SM BR SCT009 BKN028 OVC060 25/23 A3006 RMK A01
KVKY 181435Z AUTO 02016KT 4SM BR FEW037 FEW049 SCT060 25/23 A3005 RMK A01
KVKY 181415Z AUTO 03016KT 5SM HZ FEW041 FEW047 FEW055 25/22 A3005 RMK A01
KVKY 181355Z AUTO 02021KT 4SM BR FEW037 BKN044 BKN050 25/23 A3004 RMK A01
KVKY 181335Z AUTO 01020KT 3SM BR SCT029 BKN037 OVC050 25/23 A3005 RMK A01
KVKY 181315Z AUTO 02024G31KT 2 1/2SM BR FEW017 BKN028 OVC060 25/23 A3007 RMK A01
KVKY 181255Z AUTO 31018KT 3SM HZ FEW042 BKN048 OVC060 27/24 A3005 RMK A01
KVKY 181235Z AUTO 30018KT 3SM HZ FEW032 SCT041 BKN049 27/24 A3004 RMK A01
KVKY 181215Z AUTO 29019KT 5SM HZ BKN034 BKN075 OVC100 28/24 A3003 RMK A01
KVKY 181155Z AUTO 28017KT 7SM FEW039 SCT050 OVC100 28/23 A3002 RMK A01
KVKY 181135Z AUTO 29018KT 9SM FEW032 SCT042 BKN050 28/24 A3002 RMK A01
KVKY 181115Z AUTO 27019KT 10SM SCT031 BKN041 OVC070 28/24 A3002 RMK A01
KVKY 181055Z AUTO 27018KT 10SM SCT031 BKN049 OVC080 27/24 A3001 RMK A01
KVKY 181035Z AUTO 27021KT 10SM FEW032 SCT050 BKN080 28/24 A3000 RMK A01
KVKY 181015Z AUTO 28017KT 8SM BKN032 BKN043 OVC120 27/23 A3000 RMK A01
KVKY 180955Z AUTO 27020KT 8SM FEW025 SCT038 BKN055 28/23 A3000 RMK A01
KVKY 180935Z AUTO 26021KT 5SM HZ BKN027 BKN055 OVC085 28/25 A3001 RMK A01
KVKY 180915Z AUTO 26016KT 4SM HZ SCT029 BKN065 OVC095 28/25 A3001 RMK A01
KVKY 180855Z AUTO 26014KT 9SM FEW045 BKN065 OVC080 28/25 A3001 RMK A01
KVKY 180835Z AUTO 25017KT 10SM FEW022 BKN065 OVC080 28/24 A3000 RMK A01
KVKY 180815Z AUTO 25016KT 10SM FEW022 BKN041 OVC085 28/25 A3001 RMK A01
KVKY 180755Z AUTO 24014KT 10SM SCT040 BKN055 OVC090 28/25 A3002 RMK A01
KVKY 180735Z AUTO 24014KT 10SM FEW050 SCT060 OVC080 28/24 A3002 RMK A01